Time;durP1;ratioP1;P1;durP2;ratioP2;P2;SDS_P1;SDS_P2;PMS_P1;PMS_P2;Temp;Humidity;BMP_temperature;BMP_pressure;BME280_temperature;BME280_humidity;BME280_pressure;Samples;Min_cycle;Max_cycle;Signal;HPM_P1;HPM_P2
2022/02/15 00:00:09;;;;;;;1.10;0.30;;;;;;;22.80;57.75;99957.28;5051991;28;20108;-64
2022/02/15 00:02:34;;;;;;;1.27;0.20;;;;;;;22.77;57.61;99963.22;5051898;28;20028;-63
2022/02/15 00:04:59;;;;;;;0.65;0.10;;;;;;;22.78;57.53;99958.56;5054142;28;20061;-64
2022/02/15 00:07:25;;;;;;;0.20;0.20;;;;;;;22.75;57.34;99964.50;5055821;28;20025;-63
2022/02/15 00:09:50;;;;;;;1.73;0.45;;;;;;;22.72;57.20;99964.94;5045751;28;20048;-63
2022/02/15 00:12:15;;;;;;;0.90;0.20;;;;;;;22.70;57.21;99962.44;5036384;28;20036;-64
2022/02/15 00:14:40;;;;;;;1.88;0.40;;;;;;;22.69;57.48;99966.22;5035551;28;20037;-63
2022/02/15 00:17:06;;;;;;;0.98;0.30;;;;;;;22.69;57.30;99962.66;5035616;28;20033;-63
2022/02/15 00:19:31;;;;;;;0.80;0.40;;;;;;;22.67;57.67;99962.84;5035610;28;20523;-64
2022/02/15 00:21:56;;;;;;;0.90;0.20;;;;;;;22.65;57.28;99969.63;5035456;28;20036;-63
2022/02/15 00:24:22;;;;;;;0.63;0.30;;;;;;;22.65;57.43;99970.44;5035965;28;20033;-64
2022/02/15 00:26:48;;;;;;;1.35;0.30;;;;;;;22.63;56.76;99966.25;5035195;28;20484;-63
2022/02/15 00:29:14;;;;;;;1.52;0.20;;;;;;;22.61;57.06;99979.34;5035624;28;20068;-63
2022/02/15 00:31:39;;;;;;;1.38;0.30;;;;;;;22.60;57.23;99973.03;5033890;28;20033;-64
2022/02/15 00:34:04;;;;;;;0.63;0.17;;;;;;;22.59;57.05;99975.97;5035474;28;20135;-63
2022/02/15 00:36:29;;;;;;;1.38;0.40;;;;;;;22.58;57.23;99975.16;5034031;28;20048;-63
2022/02/15 00:38:55;;;;;;;1.13;0.35;;;;;;;22.58;56.97;99975.16;5036547;28;20059;-64
2022/02/15 00:41:20;;;;;;;1.38;0.40;;;;;;;22.55;57.32;99966.53;5054994;28;20069;-63
2022/02/15 00:43:45;;;;;;;1.17;0.20;;;;;;;22.55;57.51;99969.28;5054854;28;20094;-64
2022/02/15 00:46:11;;;;;;;0.93;0.30;;;;;;;22.52;56.78;99974.13;5055201;28;20090;-65
2022/02/15 00:48:36;;;;;;;0.55;0.40;;;;;;;22.52;56.91;99971.41;5042124;28;20376;-63
2022/02/15 00:51:01;;;;;;;1.10;0.47;;;;;;;22.48;56.47;99975.59;5035023;28;20093;-63
2022/02/15 00:53:27;;;;;;;1.10;0.28;;;;;;;22.50;56.86;99972.66;5034952;28;20084;-64
2022/02/15 00:55:52;;;;;;;1.83;0.30;;;;;;;22.48;57.24;99969.28;5034743;28;20321;-63
2022/02/15 00:58:17;;;;;;;0.68;0.22;;;;;;;22.47;56.84;99965.72;5034974;28;20128;-65
2022/02/15 01:00:42;;;;;;;0.30;0.10;;;;;;;22.46;56.83;99972.25;5034703;28;20136;-63
2022/02/15 01:03:08;;;;;;;1.35;0.60;;;;;;;22.46;57.39;99971.41;5034942;28;20029;-63
2022/02/15 01:05:33;;;;;;;0.30;0.20;;;;;;;22.45;56.78;99965.09;5034666;28;20028;-64
2022/02/15 01:07:58;;;;;;;0.28;0.10;;;;;;;22.45;56.80;99972.47;5034660;28;20025;-63
2022/02/15 01:10:24;;;;;;;1.00;0.40;;;;;;;22.44;56.32;99973.53;5048308;28;20090;-63
2022/02/15 01:12:49;;;;;;;0.65;0.22;;;;;;;22.43;57.26;99972.69;5054338;28;20032;-64
2022/02/15 01:15:16;;;;;;;1.20;0.20;;;;;;;22.43;56.73;99980.06;5053780;28;20036;-63
2022/02/15 01:17:45;;;;;;;0.55;0.35;;;;;;;22.39;56.83;99976.94;5054000;28;20411;-64
2022/02/15 01:20:11;;;;;;;3.13;0.35;;;;;;;22.39;57.08;99976.94;5053133;28;20025;-65
2022/02/15 01:22:36;;;;;;;0.55;0.32;;;;;;;22.38;57.04;99969.78;5054362;28;20017;-63
2022/02/15 01:25:03;;;;;;;0.63;0.17;;;;;;;22.36;57.00;99955.47;5054553;28;20524;-63
2022/02/15 01:27:28;;;;;;;1.13;0.15;;;;;;;22.37;56.60;99956.31;5048698;28;20037;-64
2022/02/15 01:29:53;;;;;;;0.38;0.10;;;;;;;22.36;56.87;99960.94;5034106;28;20499;-63
2022/02/15 01:32:19;;;;;;;1.00;0.63;;;;;;;22.36;56.67;99957.38;5034379;28;20028;-64
2022/02/15 01:34:44;;;;;;;1.38;0.30;;;;;;;22.35;57.53;99956.53;5034359;28;20029;-63
2022/02/15 01:37:09;;;;;;;0.85;0.17;;;;;;;22.35;56.60;99969.38;5034215;28;20022;-63
2022/02/15 01:39:34;;;;;;;0.82;0.28;;;;;;;22.34;57.15;99973.16;5040487;28;20221;-64
2022/02/15 01:42:01;;;;;;;0.82;0.13;;;;;;;22.32;56.67;99976.13;5053963;28;20028;-63
2022/02/15 01:44:26;;;;;;;0.10;0.08;;;;;;;22.30;56.64;99978.22;5054156;28;20025;-63
2022/02/15 01:46:51;;;;;;;2.03;0.22;;;;;;;22.30;56.18;99972.75;5053653;28;20029;-64
2022/02/15 01:49:17;;;;;;;0.40;0.20;;;;;;;22.28;56.50;99969.41;5054007;28;20033;-63
2022/02/15 01:51:42;;;;;;;1.85;0.20;;;;;;;22.30;56.78;99966.44;5053548;28;20467;-63
2022/02/15 01:54:07;;;;;;;0.85;0.20;;;;;;;22.27;56.05;99962.25;5053753;28;20052;-64
2022/02/15 01:56:33;;;;;;;1.02;0.30;;;;;;;22.29;56.55;99965.59;5053736;28;20229;-63
2022/02/15 01:58:58;;;;;;;2.10;0.20;;;;;;;22.28;56.80;99974.88;5054137;28;20017;-64
2022/02/15 02:01:23;;;;;;;0.95;0.50;;;;;;;22.28;56.96;99965.81;5053744;28;20025;-63
2022/02/15 02:03:48;;;;;;;0.80;0.20;;;;;;;22.27;56.70;99964.97;5053333;28;20064;-63
2022/02/15 02:06:14;;;;;;;0.63;0.30;;;;;;;22.25;56.59;99964.38;5053680;28;20062;-65
2022/02/15 02:08:39;;;;;;;1.05;0.30;;;;;;;22.26;56.57;99960.56;5053223;28;20021;-63
2022/02/15 02:11:05;;;;;;;1.27;0.30;;;;;;;22.25;56.19;99961.63;5036812;28;20025;-64
2022/02/15 02:13:30;;;;;;;3.35;0.28;;;;;;;22.25;56.78;99961.63;5053135;28;20111;-65
2022/02/15 02:15:55;;;;;;;1.00;0.45;;;;;;;22.24;56.00;99959.94;5053520;28;20029;-63
2022/02/15 02:18:21;;;;;;;1.30;0.50;;;;;;;22.26;56.88;99966.03;5053396;28;20017;-64
2022/02/15 02:20:47;;;;;;;2.53;0.28;;;;;;;22.24;56.57;99954.47;5053085;28;20032;-64
2022/02/15 02:23:15;;;;;;;1.98;0.20;;;;;;;22.22;56.26;99956.59;5053201;28;20029;-63
2022/02/15 02:25:41;;;;;;;1.38;0.20;;;;;;;22.23;56.53;99950.06;5011966;28;20022;-64
2022/02/15 02:28:06;;;;;;;1.77;0.30;;;;;;;22.20;56.33;99943.13;5013285;28;20489;-63
2022/02/15 02:30:32;;;;;;;0.65;0.20;;;;;;;22.20;56.45;99945.88;5013469;28;20022;-63
2022/02/15 02:32:57;;;;;;;0.60;0.28;;;;;;;22.20;56.46;99940.41;5013609;28;20049;-65
2022/02/15 02:35:22;;;;;;;0.70;0.20;;;;;;;22.21;55.61;99943.97;5013780;28;20377;-63
2022/02/15 02:37:49;;;;;;;1.15;0.35;;;;;;;22.20;55.99;99940.41;5013382;28;20358;-64
2022/02/15 02:40:15;;;;;;;0.75;0.10;;;;;;;22.20;56.50;99945.03;5041523;28;20025;-65
2022/02/15 02:42:41;;;;;;;0.47;0.20;;;;;;;22.19;55.93;99948.81;5051408;28;20108;-63
2022/02/15 02:45:09;;;;;;;0.25;0.22;;;;;;;22.17;55.95;99948.16;5052903;28;20028;-65
2022/02/15 02:47:35;;;;;;;0.60;0.20;;;;;;;22.18;56.44;99958.09;5052641;28;20052;-63
2022/02/15 02:50:00;;;;;;;1.13;0.20;;;;;;;22.18;56.10;99947.16;5052788;28;20443;-64
2022/02/15 02:52:25;;;;;;;1.85;0.17;;;;;;;22.15;56.32;99945.66;5051114;28;20025;-65
2022/02/15 02:54:51;;;;;;;0.40;0.20;;;;;;;22.16;56.89;99943.75;5051015;28;20057;-63
2022/02/15 02:57:17;;;;;;;2.20;0.65;;;;;;;22.15;56.26;99945.66;5052757;28;20024;-64
2022/02/15 02:59:46;;;;;;;0.32;0.10;;;;;;;22.14;56.01;99940.41;5052347;28;20039;-65
2022/02/15 03:02:12;;;;;;;2.35;0.38;;;;;;;22.15;55.73;99936.59;5052625;28;20044;-63
2022/02/15 03:04:38;;;;;;;1.23;0.20;;;;;;;22.15;56.57;99936.59;5052537;28;20035;-65
2022/02/15 03:07:04;;;;;;;1.65;0.43;;;;;;;22.14;55.97;99941.25;5052366;28;20025;-64
2022/02/15 03:09:29;;;;;;;0.63;0.10;;;;;;;22.13;56.20;99933.25;5044489;28;20026;-64
2022/02/15 03:11:55;;;;;;;1.70;0.40;;;;;;;22.13;56.12;99933.25;5034281;28;21541;-65
2022/02/15 03:14:21;;;;;;;0.60;0.30;;;;;;;22.11;56.13;99943.59;5052607;28;20032;-64
2022/02/15 03:16:46;;;;;;;1.40;0.30;;;;;;;22.13;56.59;99949.66;5052118;28;20029;-64
2022/02/15 03:19:11;;;;;;;0.73;0.43;;;;;;;22.12;56.42;99943.34;5052391;28;20058;-64
2022/02/15 03:21:37;;;;;;;0.60;0.30;;;;;;;22.13;55.95;99944.19;5052194;28;20423;-64
2022/02/15 03:24:02;;;;;;;0.35;0.22;;;;;;;22.12;56.12;99934.31;5052238;28;20035;-64
2022/02/15 03:26:28;;;;;;;0.73;0.10;;;;;;;22.12;56.34;99937.03;5052348;28;20033;-63
2022/02/15 03:28:53;;;;;;;2.25;0.40;;;;;;;22.09;55.91;99932.84;5051859;28;20029;-64
2022/02/15 03:31:19;;;;;;;1.60;0.80;;;;;;;22.11;55.99;99938.09;5052370;28;20029;-64
2022/02/15 03:33:44;;;;;;;1.38;0.30;;;;;;;22.10;56.40;99928.22;5051873;28;20044;-64
2022/02/15 03:36:10;;;;;;;0.45;0.20;;;;;;;22.10;56.04;99933.69;5052272;28;20040;-64
2022/02/15 03:38:36;;;;;;;0.75;0.10;;;;;;;22.09;56.03;99940.22;5049232;28;20031;-65
2022/02/15 03:43:45;;;;;;;0.80;0.20;;;;;;;22.08;56.28;99925.69;5036144;28;20032;-65
2022/02/15 03:46:10;;;;;;;0.85;0.35;;;;;;;22.07;55.38;99928.66;5036356;28;20026;-63
2022/02/15 03:48:35;;;;;;;1.23;0.30;;;;;;;22.07;55.84;99918.56;5036070;28;20018;-63
2022/02/15 03:51:01;;;;;;;0.30;0.10;;;;;;;22.07;55.29;99923.19;5036069;28;20021;-65
2022/02/15 03:53:26;;;;;;;1.52;0.20;;;;;;;22.06;56.41;99919.59;5034847;28;20041;-63
2022/02/15 03:55:51;;;;;;;3.42;0.50;;;;;;;22.07;55.90;99923.19;5035786;28;20116;-64
2022/02/15 03:58:17;;;;;;;0.80;0.43;;;;;;;22.07;56.27;99923.19;5036248;28;20368;-65
2022/02/15 04:00:42;;;;;;;0.50;0.10;;;;;;;22.07;56.12;99923.19;5035810;28;20129;-64
2022/02/15 04:03:08;;;;;;;0.57;0.10;;;;;;;22.06;56.21;99924.25;5036037;28;20036;-64
2022/02/15 04:05:34;;;;;;;1.27;0.20;;;;;;;22.05;56.07;99920.66;5035810;28;20136;-64
2022/02/15 04:07:59;;;;;;;1.55;0.28;;;;;;;22.06;55.79;99921.50;5036058;28;20452;-64
2022/02/15 04:10:25;;;;;;;0.35;0.20;;;;;;;22.05;55.77;99914.34;5053513;28;20025;-64
2022/02/15 04:12:50;;;;;;;0.80;0.25;;;;;;;22.04;56.23;99898.97;5054197;28;20249;-65
2022/02/15 04:15:17;;;;;;;1.40;0.32;;;;;;;22.03;56.73;99905.50;5055856;28;20021;-63
2022/02/15 04:17:43;;;;;;;0.30;0.13;;;;;;;22.04;55.74;99898.97;5054100;28;20017;-64
2022/02/15 04:20:09;;;;;;;0.82;0.13;;;;;;;22.03;56.31;99895.38;5055753;28;20078;-65
2022/02/15 04:22:34;;;;;;;1.15;0.22;;;;;;;22.03;56.13;99894.56;5055548;28;20033;-63
2022/02/15 04:25:00;;;;;;;0.55;0.20;;;;;;;22.01;56.09;99893.94;5055394;28;20028;-64
2022/02/15 04:27:26;;;;;;;0.45;0.10;;;;;;;22.03;55.60;99900.03;5055533;28;20083;-64
2022/02/15 04:29:52;;;;;;;1.20;0.22;;;;;;;22.03;56.11;99891.81;5055171;28;20472;-63
2022/02/15 04:32:17;;;;;;;0.38;0.13;;;;;;;22.02;55.94;99888.25;5055509;28;20032;-64
2022/02/15 04:34:42;;;;;;;1.00;0.15;;;;;;;22.01;55.82;99892.03;5055110;28;20027;-63
2022/02/15 04:37:07;;;;;;;1.42;0.30;;;;;;;22.01;55.88;99891.19;5055339;28;20055;-64
2022/02/15 04:39:33;;;;;;;1.35;0.10;;;;;;;22.01;55.93;99885.72;5042176;28;20068;-64
2022/02/15 04:41:58;;;;;;;1.23;0.38;;;;;;;22.00;55.73;99884.84;5035175;28;20040;-63
2022/02/15 04:44:24;;;;;;;0.93;0.30;;;;;;;22.00;56.04;99886.75;5035312;28;20030;-63
2022/02/15 04:46:49;;;;;;;1.02;0.28;;;;;;;22.01;55.77;99885.72;5034855;28;20062;-65
2022/02/15 04:49:14;;;;;;;1.08;0.52;;;;;;;22.00;55.89;99894.97;5035239;28;20037;-64
2022/02/15 04:51:40;;;;;;;1.58;0.40;;;;;;;21.98;55.48;99892.44;5034763;28;20026;-64
2022/02/15 04:54:05;;;;;;;0.95;0.30;;;;;;;21.98;55.42;99897.06;5034914;28;20067;-65
2022/02/15 04:56:30;;;;;;;1.58;0.10;;;;;;;21.98;55.13;99891.59;5035012;28;20064;-63
2022/02/15 04:58:57;;;;;;;0.38;0.28;;;;;;;21.96;56.07;99885.50;5034726;28;20507;-64
2022/02/15 05:01:22;;;;;;;0.85;0.20;;;;;;;22.56;54.54;99889.63;5034997;28;20025;-65
2022/02/15 05:03:48;;;;;;;0.63;0.40;;;;;;;23.30;52.45;99868.75;5033447;28;20045;-63
2022/02/15 05:06:13;;;;;;;1.95;0.25;;;;;;;23.52;52.53;99861.75;5034931;28;20021;-64
2022/02/15 05:08:38;;;;;;;0.43;0.13;;;;;;;23.70;51.48;99859.03;5037960;28;20025;-63
2022/02/15 05:11:04;;;;;;;0.57;0.20;;;;;;;23.82;51.03;99860.97;5054641;28;20033;-63
2022/02/15 05:13:29;;;;;;;3.17;0.70;;;;;;;23.93;51.41;99873.94;5054647;28;20456;-65
2022/02/15 05:15:54;;;;;;;1.35;0.32;;;;;;;24.02;51.46;99864.31;5054436;28;20060;-63
2022/02/15 05:18:20;;;;;;;1.02;0.32;;;;;;;24.09;51.54;99873.28;5054558;28;20021;-63
2022/02/15 05:20:45;;;;;;;0.15;0.13;;;;;;;24.19;51.11;99872.75;5054269;28;20021;-64
2022/02/15 05:23:10;;;;;;;1.05;0.63;;;;;;;24.24;50.87;99870.13;5054758;28;20025;-63
2022/02/15 05:25:35;;;;;;;1.45;0.50;;;;;;;24.29;51.68;99862.88;5054234;28;20143;-64
2022/02/15 05:28:01;;;;;;;1.00;0.30;;;;;;;24.34;52.33;99855.84;5054263;28;20388;-65
2022/02/15 05:30:28;;;;;;;2.60;0.65;;;;;;;24.40;51.65;99853.03;5054346;28;20490;-64
2022/02/15 05:32:54;;;;;;;0.47;0.10;;;;;;;24.43;51.94;99855.28;5054395;28;20047;-63
2022/02/15 05:35:19;;;;;;;2.05;0.43;;;;;;;24.48;51.97;99846.34;5054309;28;20531;-65
2022/02/15 05:37:45;;;;;;;1.15;0.15;;;;;;;24.51;51.56;99852.19;5053616;28;20104;-63
2022/02/15 05:40:11;;;;;;;1.15;0.20;;;;;;;24.56;51.95;99851.50;5034669;28;20021;-64
2022/02/15 05:42:37;;;;;;;0.40;0.15;;;;;;;24.60;52.28;99852.69;5034004;28;20376;-65
2022/02/15 05:45:03;;;;;;;0.70;0.20;;;;;;;24.63;52.00;99852.22;5034045;28;20021;-63
2022/02/15 05:47:28;;;;;;;0.75;0.28;;;;;;;24.64;52.40;99848.41;5032647;28;20045;-64
2022/02/15 05:52:38;;;;;;;0.90;0.17;;;;;;;24.68;51.98;99846.84;5033689;28;20032;-64
2022/02/15 05:55:04;;;;;;;1.67;0.40;;;;;;;24.72;52.19;99849.97;5045738;28;20029;-63
2022/02/15 05:57:29;;;;;;;0.60;0.30;;;;;;;24.73;51.88;99852.50;5043222;28;20375;-64
2022/02/15 05:59:54;;;;;;;0.57;0.10;;;;;;;24.75;52.90;99850.34;5033697;28;20025;-65
2022/02/15 06:02:20;;;;;;;0.55;0.13;;;;;;;24.76;52.65;99835.53;5033361;28;20021;-64
2022/02/15 06:04:46;;;;;;;0.55;0.10;;;;;;;24.80;52.18;99839.47;5033485;28;20472;-64
2022/02/15 06:07:11;;;;;;;2.13;0.25;;;;;;;24.82;52.76;99834.56;5033676;28;20112;-65
2022/02/15 06:09:36;;;;;;;1.33;0.25;;;;;;;24.83;51.92;99830.72;5048212;28;20049;-64
2022/02/15 06:12:02;;;;;;;2.15;0.40;;;;;;;24.85;51.96;99820.31;5053497;28;20029;-64
2022/02/15 06:14:27;;;;;;;1.40;0.30;;;;;;;24.86;52.16;99811.03;5053553;28;20036;-65
2022/02/15 06:16:52;;;;;;;1.20;0.30;;;;;;;24.87;52.27;99823.72;5053274;28;20230;-64
2022/02/15 06:19:17;;;;;;;0.35;0.10;;;;;;;24.90;52.37;99819.63;5053496;28;20059;-64
2022/02/15 06:21:43;;;;;;;1.70;0.30;;;;;;;24.92;52.69;99819.41;5051782;28;20116;-65
2022/02/15 06:24:08;;;;;;;0.45;0.10;;;;;;;24.92;52.30;99811.97;5045777;28;20079;-64
2022/02/15 06:26:34;;;;;;;0.25;0.22;;;;;;;24.94;51.97;99820.81;5033292;28;20029;-64
2022/02/15 06:28:59;;;;;;;1.38;0.32;;;;;;;24.95;52.13;99808.75;5033101;28;20476;-63
2022/02/15 06:31:25;;;;;;;1.25;0.20;;;;;;;24.97;51.63;99819.50;5033372;28;20531;-64
2022/02/15 06:33:50;;;;;;;1.35;0.20;;;;;;;25.00;52.60;99816.31;5032998;28;20176;-65
2022/02/15 06:36:15;;;;;;;1.20;0.30;;;;;;;25.00;52.04;99821.81;5033184;28;20480;-64
2022/02/15 06:38:41;;;;;;;2.30;0.45;;;;;;;24.99;52.16;99817.34;5039803;28;20052;-64
2022/02/15 06:41:06;;;;;;;0.80;0.20;;;;;;;25.01;52.29;99820.72;5043108;28;20029;-63
2022/02/15 06:43:31;;;;;;;0.85;0.30;;;;;;;25.03;52.06;99818.59;5032943;28;20488;-64
2022/02/15 06:45:57;;;;;;;1.05;0.20;;;;;;;25.06;51.78;99820.88;5032806;28;20025;-65
2022/02/15 06:48:22;;;;;;;1.50;0.30;;;;;;;25.04;51.39;99820.25;5032896;28;20372;-64
2022/02/15 06:50:47;;;;;;;0.70;0.17;;;;;;;25.07;51.79;99825.28;5032673;28;20035;-64
2022/02/15 06:53:13;;;;;;;1.83;0.63;;;;;;;25.08;51.66;99819.53;5032712;28;20193;-65
2022/02/15 06:55:38;;;;;;;1.60;0.30;;;;;;;25.08;52.37;99810.44;5032548;28;20468;-64
2022/02/15 06:58:04;;;;;;;2.03;0.50;;;;;;;25.10;52.41;99816.53;5032798;28;20022;-65
2022/02/15 07:00:29;;;;;;;0.80;0.55;;;;;;;25.08;51.78;99826.97;5032738;28;20032;-65
2022/02/15 07:02:55;;;;;;;1.00;0.22;;;;;;;25.11;52.25;99815.47;5032439;28;20104;-64
2022/02/15 07:05:20;;;;;;;0.55;0.10;;;;;;;25.14;51.49;99820.47;5032710;28;20052;-65
2022/02/15 07:07:45;;;;;;;1.13;0.20;;;;;;;25.15;52.03;99811.16;5032602;28;20025;-64
2022/02/15 07:10:12;;;;;;;1.25;0.63;;;;;;;25.14;51.92;99809.47;5052670;28;20107;-64
2022/02/15 07:12:38;;;;;;;0.57;0.30;;;;;;;25.17;51.56;99817.25;5052307;28;20021;-64
2022/02/15 07:15:03;;;;;;;0.90;0.47;;;;;;;25.15;51.86;99813.91;5051852;28;20147;-64
2022/02/15 07:17:34;;;;;;;0.40;0.10;;;;;;;25.16;51.54;99819.16;5052492;28;20040;-64
2022/02/15 07:19:59;;;;;;;1.25;0.20;;;;;;;25.16;52.32;99821.06;5052557;28;20029;-66
2022/02/15 07:22:25;;;;;;;1.63;0.40;;;;;;;25.18;51.53;99813.41;5052424;28;20036;-64
2022/02/15 07:24:50;;;;;;;0.95;0.20;;;;;;;25.20;52.20;99814.03;5052062;28;20077;-65
2022/02/15 07:27:15;;;;;;;0.80;0.20;;;;;;;25.20;51.86;99814.03;5052301;28;20479;-64
2022/02/15 07:29:41;;;;;;;1.42;0.22;;;;;;;25.19;51.35;99812.34;5052039;28;20027;-63
2022/02/15 07:32:06;;;;;;;0.45;0.10;;;;;;;25.22;51.23;99816.53;5052341;28;20476;-65
2022/02/15 07:34:31;;;;;;;1.35;0.20;;;;;;;25.23;51.35;99805.28;5051159;28;20071;-64
2022/02/15 07:36:57;;;;;;;1.13;0.35;;;;;;;25.25;52.13;99802.31;5052058;28;20032;-64
2022/02/15 07:39:22;;;;;;;4.43;0.95;;;;;;;25.22;52.03;99803.63;5037183;28;20084;-65
2022/02/15 07:41:49;;;;;;;1.63;0.28;;;;;;;25.22;51.52;99800.88;5031979;28;20035;-64
2022/02/15 07:44:15;;;;;;;0.75;0.20;;;;;;;25.27;52.00;99797.41;5032285;28;20030;-65
2022/02/15 07:46:40;;;;;;;1.00;0.20;;;;;;;25.25;51.54;99791.31;5032099;28;20047;-66
2022/02/15 07:49:05;;;;;;;0.25;0.03;;;;;;;25.26;51.54;99791.06;5032051;28;20065;-64
2022/02/15 07:51:30;;;;;;;1.20;0.30;;;;;;;25.28;51.39;99779.81;5032210;28;20073;-65
2022/02/15 07:53:56;;;;;;;1.88;0.60;;;;;;;25.25;51.78;99789.38;5031721;28;20052;-64
2022/02/15 07:56:21;;;;;;;0.95;0.20;;;;;;;25.26;51.28;99780.06;5032202;28;20460;-63
2022/02/15 07:58:46;;;;;;;0.73;0.10;;;;;;;25.29;51.49;99773.22;5031888;28;20013;-65
2022/02/15 08:01:11;;;;;;;0.90;0.17;;;;;;;25.29;51.97;99768.56;5032082;28;20026;-64
2022/02/15 08:03:38;;;;;;;0.65;0.47;;;;;;;25.27;51.49;99765.22;5030760;28;20029;-64
2022/02/15 08:06:03;;;;;;;0.55;0.08;;;;;;;25.31;51.69;99777.41;5031455;28;20034;-66
2022/02/15 08:08:29;;;;;;;0.73;0.20;;;;;;;25.31;52.12;99777.41;5041268;28;20033;-65
2022/02/15 08:10:56;;;;;;;1.60;0.30;;;;;;;25.31;51.76;99769.16;5043481;28;20038;-65
2022/02/15 08:13:22;;;;;;;0.50;0.17;;;;;;;25.32;51.90;99779.06;5031906;28;20029;-65
2022/02/15 08:15:49;;;;;;;0.75;0.15;;;;;;;25.34;51.46;99776.91;5031749;28;20370;-64
2022/02/15 08:18:15;;;;;;;1.00;0.30;;;;;;;25.31;51.55;99765.56;5030321;28;20144;-66
2022/02/15 08:20:40;;;;;;;1.30;0.40;;;;;;;25.33;51.74;99767.00;5030456;28;20021;-64
2022/02/15 08:23:05;;;;;;;1.23;0.30;;;;;;;25.34;51.62;99773.31;5030448;28;20476;-65
2022/02/15 08:25:31;;;;;;;1.35;0.35;;;;;;;25.34;51.15;99768.66;5032100;28;20025;-65
2022/02/15 08:27:58;;;;;;;0.63;0.28;;;;;;;25.33;51.42;99758.72;5034214;28;20032;-64
2022/02/15 08:30:24;;;;;;;1.38;0.30;;;;;;;25.36;51.18;99758.28;5034329;28;20104;-65
2022/02/15 08:32:49;;;;;;;0.60;0.20;;;;;;;25.37;51.38;99765.44;5033846;28;20029;-65
2022/02/15 08:35:15;;;;;;;0.77;0.40;;;;;;;25.39;51.66;99762.44;5034251;28;20418;-64
2022/02/15 08:37:40;;;;;;;2.47;0.82;;;;;;;25.34;51.70;99760.41;5034023;28;20545;-64
2022/02/15 08:40:07;;;;;;;1.50;0.52;;;;;;;25.35;51.15;99762.06;5034059;28;20033;-65
2022/02/15 08:42:33;;;;;;;2.80;0.75;;;;;;;25.38;51.02;99750.63;5034149;28;20017;-64
2022/02/15 08:44:58;;;;;;;1.92;0.40;;;;;;;25.38;51.13;99756.13;5034113;28;20029;-65
2022/02/15 08:47:24;;;;;;;1.60;0.20;;;;;;;25.38;51.55;99745.09;5032653;28;20449;-63
2022/02/15 08:49:53;;;;;;;0.65;0.35;;;;;;;25.38;51.42;99738.78;5033443;28;20116;-64
2022/02/15 08:52:20;;;;;;;1.20;0.25;;;;;;;25.38;51.73;99739.59;5033908;28;20029;-66
2022/02/15 08:54:47;;;;;;;1.02;0.30;;;;;;;25.39;51.59;99735.78;5033465;28;20064;-64
2022/02/15 08:57:12;;;;;;;1.45;0.38;;;;;;;25.37;51.03;99715.09;5033587;28;20032;-65
2022/02/15 08:59:37;;;;;;;0.47;0.25;;;;;;;25.38;51.13;99712.09;5033389;28;20461;-65
2022/02/15 09:02:03;;;;;;;0.80;0.40;;;;;;;25.42;51.48;99709.69;5033497;28;20029;-64
2022/02/15 09:04:29;;;;;;;1.42;0.20;;;;;;;25.40;51.25;99704.44;5033670;28;20029;-65
2022/02/15 09:06:55;;;;;;;0.85;0.22;;;;;;;25.40;50.80;99703.59;5033467;28;20472;-64
2022/02/15 09:09:21;;;;;;;0.73;0.17;;;;;;;25.41;51.44;99711.59;5036793;28;20028;-64
2022/02/15 09:11:46;;;;;;;1.88;0.28;;;;;;;25.41;51.10;99722.59;5033453;28;20044;-65
2022/02/15 09:14:11;;;;;;;2.55;0.43;;;;;;;25.41;51.44;99717.09;5033625;28;20032;-64
2022/02/15 09:16:38;;;;;;;1.17;0.55;;;;;;;25.42;50.80;99713.28;5033126;28;20053;-65
2022/02/15 09:19:03;;;;;;;1.02;0.30;;;;;;;25.40;51.48;99709.94;5031869;28;20043;-64
2022/02/15 09:21:29;;;;;;;1.17;0.32;;;;;;;25.46;50.58;99700.69;5033217;28;20499;-65
2022/02/15 09:23:54;;;;;;;0.95;0.10;;;;;;;25.45;50.96;99690.75;5032786;28;20033;-66
2022/02/15 09:26:19;;;;;;;1.25;0.22;;;;;;;25.43;51.71;99687.44;5033175;28;20036;-65
2022/02/15 09:28:44;;;;;;;0.93;0.20;;;;;;;25.44;51.52;99688.25;5033168;28;20028;-65
2022/02/15 09:31:10;;;;;;;1.02;0.25;;;;;;;25.47;51.69;99685.84;5032317;28;20480;-66
2022/02/15 09:33:35;;;;;;;1.30;0.40;;;;;;;25.46;51.04;99675.94;5033106;28;20021;-64
2022/02/15 09:36:00;;;;;;;0.95;0.20;;;;;;;25.49;51.12;99683.69;5032640;28;20036;-65
2022/02/15 09:38:26;;;;;;;0.52;0.20;;;;;;;25.47;51.24;99677.59;5031425;28;20013;-66
2022/02/15 09:40:51;;;;;;;1.10;0.30;;;;;;;25.50;51.44;99668.00;5033347;28;20044;-65
2022/02/15 09:43:17;;;;;;;1.48;0.52;;;;;;;25.49;51.21;99664.41;5032918;28;20526;-67
2022/02/15 09:45:45;;;;;;;0.63;0.13;;;;;;;25.49;51.27;99661.66;5032539;28;20017;-64
2022/02/15 09:48:13;;;;;;;1.38;0.22;;;;;;;25.48;51.08;99660.00;5035456;28;20048;-64
2022/02/15 09:50:39;;;;;;;1.88;0.32;;;;;;;25.49;50.79;99653.41;5033170;28;20053;-64
2022/02/15 09:53:04;;;;;;;2.83;0.35;;;;;;;25.48;51.29;99651.75;5032317;28;20452;-61
2022/02/15 09:55:30;;;;;;;1.55;0.20;;;;;;;25.50;50.55;99660.59;5032533;28;20021;-64
2022/02/15 09:57:55;;;;;;;2.03;0.25;;;;;;;25.50;51.03;99649.56;5035584;28;20400;-62
2022/02/15 10:00:23;;;;;;;1.08;0.15;;;;;;;25.53;51.03;99641.91;5032810;28;20014;-62
2022/02/15 10:02:49;;;;;;;2.30;0.20;;;;;;;25.51;50.76;99639.41;5032680;28;20049;-65
2022/02/15 10:05:16;;;;;;;2.78;0.32;;;;;;;25.50;51.54;99627.56;5032187;28;20676;-64
2022/02/15 10:07:54;;;;;;;1.30;0.22;;;;;;;25.51;50.87;99631.16;5031890;28;20022;-65
2022/02/15 10:10:31;;;;;;;1.83;0.20;;;;;;;25.52;50.97;99624.56;5032239;28;20017;-65
2022/02/15 10:13:03;;;;;;;1.77;0.50;;;;;;;25.52;51.37;99624.56;5032063;28;20120;-64
2022/02/15 10:15:30;;;;;;;0.35;0.30;;;;;;;25.55;51.27;99623.25;5032237;28;20017;-64
2022/02/15 10:18:07;;;;;;;0.85;0.40;;;;;;;25.53;51.56;99619.91;5031959;28;20026;-64
2022/02/15 10:20:34;;;;;;;1.42;0.32;;;;;;;25.52;51.00;99616.31;5032023;28;20025;-67
2022/02/15 10:23:12;;;;;;;0.82;0.30;;;;;;;25.55;51.72;99617.75;5031996;28;20037;-65
2022/02/15 10:25:37;;;;;;;1.48;0.30;;;;;;;25.55;51.85;99626.00;5031550;28;20030;-67
2022/02/15 10:28:25;;;;;;;1.02;0.30;;;;;;;25.54;51.57;99618.84;5032057;28;20230;-68
2022/02/15 10:30:54;;;;;;;2.00;0.40;;;;;;;25.57;51.76;99615.59;5031704;28;20518;-69
2022/02/15 10:33:29;;;;;;;0.98;0.22;;;;;;;25.56;52.11;99609.25;5033344;28;20029;-67
2022/02/15 10:36:12;;;;;;;0.20;0.20;;;;;;;25.59;51.48;99600.50;5031487;28;20064;-68
2022/02/15 10:38:40;;;;;;;0.63;0.20;;;;;;;25.55;52.46;99607.59;5028573;28;20092;-65
2022/02/15 10:41:07;;;;;;;0.93;0.30;;;;;;;25.57;52.32;99599.09;5031107;28;20033;-66
2022/02/15 10:43:46;;;;;;;1.55;0.35;;;;;;;25.58;51.54;99600.75;5031745;28;20480;-67
2022/02/15 10:46:14;;;;;;;0.50;0.20;;;;;;;25.58;52.12;99593.31;5032088;28;20025;-66
2022/02/15 10:48:39;;;;;;;1.08;0.50;;;;;;;25.58;51.83;99598.00;5033307;28;20029;-66
2022/02/15 10:51:05;;;;;;;0.95;0.30;;;;;;;25.60;52.76;99593.06;5031662;28;20022;-65
2022/02/15 10:53:31;;;;;;;1.75;0.30;;;;;;;25.58;52.30;99590.56;5031280;28;20053;-66
2022/02/15 10:55:57;;;;;;;1.52;0.50;;;;;;;25.59;52.59;99595.00;5031122;28;20025;-68
2022/02/15 10:58:24;;;;;;;0.70;0.30;;;;;;;25.60;52.26;99582.06;5047248;28;20487;-62
2022/02/15 11:00:50;;;;;;;1.15;0.30;;;;;;;25.62;52.36;99579.91;5031383;28;20044;-63
2022/02/15 11:03:21;;;;;;;1.75;0.32;;;;;;;25.59;52.82;99585.91;5031905;28;20048;-63
2022/02/15 11:05:48;;;;;;;1.80;0.32;;;;;;;25.61;52.39;99590.06;5032438;28;20381;-62
2022/02/15 11:08:14;;;;;;;2.00;0.60;;;;;;;25.61;52.96;99589.22;5031375;28;20033;-62
2022/02/15 11:10:54;;;;;;;0.93;0.22;;;;;;;25.64;52.31;99574.97;5032789;28;20112;-63
2022/02/15 11:13:21;;;;;;;2.45;0.65;;;;;;;25.63;52.34;99587.06;5031715;28;20021;-62
2022/02/15 11:15:51;;;;;;;1.27;0.30;;;;;;;25.61;52.54;99580.97;5030468;28;20044;-63
2022/02/15 11:18:27;;;;;;;1.05;0.40;;;;;;;25.60;52.19;99591.16;5032123;28;20070;-62
2022/02/15 11:20:56;;;;;;;1.50;0.40;;;;;;;25.65;52.98;99584.91;5031083;28;20030;-63
2022/02/15 11:23:30;;;;;;;1.55;0.30;;;;;;;25.62;52.81;99577.97;5030755;28;20377;-67
2022/02/15 11:26:13;;;;;;;1.20;0.30;;;;;;;25.64;52.54;99575.81;5031769;28;20095;-65
2022/02/15 11:29:06;;;;;;;0.73;0.30;;;;;;;25.65;53.25;99573.88;5031318;28;20033;-67
2022/02/15 11:31:32;;;;;;;1.48;0.30;;;;;;;25.65;53.18;99563.72;5029180;28;20037;-72
2022/02/15 11:34:01;;;;;;;1.00;0.40;;;;;;;25.68;52.48;99562.41;5030445;28;20075;-72